Time;durP1;ratioP1;P1;durP2;ratioP2;P2;SDS_P1;SDS_P2;PMS_P1;PMS_P2;Temp;Humidity;BMP_temperature;BMP_pressure;BME280_temperature;BME280_humidity;BME280_pressure;Samples;Min_cycle;Max_cycle;Signal;HPM_P1;HPM_P2
2021/07/08 00:02:15;;;;;;;5.13;4.78;;;23.20;78.60;;;;;;5061281;28;20186;-75
2021/07/08 00:04:42;;;;;;;4.57;4.32;;;23.10;78.80;;;;;;5062019;28;20188;-75
2021/07/08 00:07:11;;;;;;;4.82;4.50;;;23.10;78.90;;;;;;5060667;28;20183;-75
2021/07/08 00:09:38;;;;;;;5.38;4.88;;;23.10;78.90;;;;;;5059481;28;20175;-76
2021/07/08 00:12:05;;;;;;;4.57;4.20;;;23.10;78.90;;;;;;5076490;28;20195;-75
2021/07/08 00:14:32;;;;;;;4.43;4.13;;;23.00;79.00;;;;;;5058398;28;20203;-75
2021/07/08 00:16:57;;;;;;;4.75;4.35;;;23.00;79.20;;;;;;5062698;28;20651;-75
2021/07/08 00:19:23;;;;;;;5.47;4.90;;;23.00;79.50;;;;;;5062396;28;20205;-75
2021/07/08 00:21:48;;;;;;;5.00;4.68;;;23.00;80.00;;;;;;5067274;28;20270;-75
2021/07/08 00:24:14;;;;;;;3.90;3.72;;;22.90;80.40;;;;;;5065540;28;20665;-75
2021/07/08 00:26:40;;;;;;;5.30;4.90;;;22.90;80.10;;;;;;5066508;28;20190;-76
2021/07/08 00:29:06;;;;;;;4.82;4.53;;;22.90;80.20;;;;;;5059541;28;20376;-75
2021/07/08 00:31:31;;;;;;;6.75;4.40;;;22.80;80.10;;;;;;5060713;28;20239;-75
2021/07/08 00:34:01;;;;;;;7.03;5.20;;;22.80;80.40;;;;;;5067191;28;20179;-75
2021/07/08 00:36:27;;;;;;;5.07;4.68;;;22.70;80.80;;;;;;5063893;28;20182;-75
2021/07/08 00:38:53;;;;;;;5.50;5.10;;;22.70;80.80;;;;;;5055605;28;21018;-75
2021/07/08 00:41:19;;;;;;;5.30;4.97;;;22.60;81.10;;;;;;5061122;28;20201;-75
2021/07/08 00:43:46;;;;;;;4.80;4.47;;;22.60;80.90;;;;;;5062049;28;20325;-75
2021/07/08 00:46:11;;;;;;;4.88;4.57;;;22.60;80.90;;;;;;5061380;28;20182;-75
2021/07/08 00:48:37;;;;;;;5.50;5.05;;;22.50;81.00;;;;;;5053760;28;20188;-75
2021/07/08 00:51:03;;;;;;;5.10;4.70;;;22.50;81.20;;;;;;5075525;28;20186;-75
2021/07/08 00:53:28;;;;;;;4.75;4.38;;;22.40;81.50;;;;;;5063882;28;20175;-75
2021/07/08 00:55:58;;;;;;;4.88;4.57;;;22.40;81.50;;;;;;5077653;28;20712;-75
2021/07/08 00:58:24;;;;;;;4.88;4.57;;;22.30;81.70;;;;;;5066945;28;20218;-76
2021/07/08 01:00:50;;;;;;;4.72;4.40;;;22.30;81.60;;;;;;5067063;28;20183;-75
2021/07/08 01:03:17;;;;;;;4.82;4.55;;;22.30;81.60;;;;;;5057367;28;20187;-75
2021/07/08 01:05:49;;;;;;;4.68;4.35;;;22.30;81.60;;;;;;5065649;28;20222;-75
2021/07/08 01:08:15;;;;;;;4.80;4.50;;;22.20;81.30;;;;;;5057804;28;20176;-75
2021/07/08 01:10:43;;;;;;;5.53;5.13;;;22.20;81.80;;;;;;5068904;28;20190;-75
2021/07/08 01:13:09;;;;;;;4.80;4.50;;;22.20;81.90;;;;;;5057532;28;20664;-75
2021/07/08 01:15:35;;;;;;;4.80;4.40;;;22.20;82.10;;;;;;5068718;28;20217;-75
2021/07/08 01:18:01;;;;;;;5.18;4.88;;;22.20;82.10;;;;;;5058813;28;20183;-75
2021/07/08 01:20:29;;;;;;;5.47;5.00;;;22.20;82.50;;;;;;5066189;28;20196;-75
2021/07/08 01:22:59;;;;;;;5.43;5.03;;;22.20;82.30;;;;;;5066876;28;20182;-75
2021/07/08 01:25:34;;;;;;;5.10;4.80;;;22.20;82.30;;;;;;5070458;28;20588;-75
2021/07/08 01:28:04;;;;;;;4.72;4.43;;;22.20;82.10;;;;;;5059828;28;20175;-75
2021/07/08 01:30:30;;;;;;;5.45;5.05;;;22.20;82.30;;;;;;5063120;28;20199;-75
2021/07/08 01:32:57;;;;;;;4.93;4.55;;;22.20;82.60;;;;;;5063326;28;20539;-75
2021/07/08 01:35:23;;;;;;;6.45;4.90;;;22.20;82.40;;;;;;5065854;28;20209;-75
2021/07/08 01:37:49;;;;;;;5.28;4.88;;;22.20;82.70;;;;;;5055077;28;20202;-75
2021/07/08 01:40:16;;;;;;;7.20;5.13;;;22.20;82.70;;;;;;5058637;28;20274;-75
2021/07/08 01:42:42;;;;;;;4.70;4.40;;;22.20;82.90;;;;;;5063025;28;20253;-75
2021/07/08 01:45:11;;;;;;;5.35;5.03;;;22.10;82.90;;;;;;5058608;28;20179;-75
2021/07/08 01:47:36;;;;;;;5.32;5.03;;;22.10;82.80;;;;;;5057715;28;20180;-75
2021/07/08 01:50:04;;;;;;;4.97;4.53;;;22.10;82.90;;;;;;5058708;28;20715;-75
2021/07/08 01:52:29;;;;;;;5.50;4.63;;;22.10;82.90;;;;;;5064306;28;20175;-75
2021/07/08 01:54:55;;;;;;;5.20;4.75;;;22.00;83.20;;;;;;5061400;28;20268;-75
2021/07/08 01:57:21;;;;;;;4.75;4.55;;;22.00;83.10;;;;;;5065445;28;20171;-75
2021/07/08 01:59:46;;;;;;;5.65;5.25;;;22.00;83.30;;;;;;5065773;28;20266;-75
2021/07/08 02:02:12;;;;;;;4.55;4.32;;;22.00;83.20;;;;;;5059857;28;20191;-75
2021/07/08 02:04:38;;;;;;;4.70;4.50;;;21.90;83.40;;;;;;5062951;28;20179;-75
2021/07/08 02:07:03;;;;;;;5.55;5.00;;;21.90;83.20;;;;;;5061884;28;20184;-74
2021/07/08 02:09:30;;;;;;;5.53;5.10;;;21.90;83.10;;;;;;5066733;28;20183;-75
2021/07/08 02:11:58;;;;;;;5.05;4.47;;;21.90;83.10;;;;;;5066710;28;20235;-75
2021/07/08 02:14:25;;;;;;;6.20;5.10;;;21.90;83.00;;;;;;5064552;28;20315;-75
2021/07/08 02:16:50;;;;;;;5.00;4.65;;;21.80;83.20;;;;;;5083208;28;20719;-75
2021/07/08 02:19:16;;;;;;;5.65;5.10;;;21.80;83.10;;;;;;5065677;28;20266;-76
2021/07/08 02:21:42;;;;;;;4.63;4.43;;;21.80;83.30;;;;;;5069586;28;20218;-75
2021/07/08 02:24:07;;;;;;;5.35;5.03;;;21.70;83.50;;;;;;5069470;28;20183;-75
2021/07/08 02:26:33;;;;;;;5.55;5.10;;;21.70;83.50;;;;;;5070345;28;20543;-75
2021/07/08 02:28:59;;;;;;;5.82;5.32;;;21.70;83.40;;;;;;5064107;28;20229;-75
2021/07/08 02:31:24;;;;;;;5.28;4.88;;;21.70;83.70;;;;;;5064656;28;20270;-75
2021/07/08 02:33:50;;;;;;;5.03;4.82;;;21.70;83.80;;;;;;5069203;28;20186;-75
2021/07/08 02:36:16;;;;;;;5.10;4.25;;;21.60;83.90;;;;;;5063519;28;20565;-75
2021/07/08 02:38:41;;;;;;;5.45;4.97;;;21.60;84.10;;;;;;5059165;28;20664;-75
2021/07/08 02:41:07;;;;;;;6.95;5.07;;;21.60;84.00;;;;;;5058956;28;20199;-75
2021/07/08 02:43:33;;;;;;;5.82;5.15;;;21.50;83.90;;;;;;5065924;28;20183;-75
2021/07/08 02:45:59;;;;;;;5.78;5.28;;;21.50;84.10;;;;;;5057877;28;20245;-75
2021/07/08 02:48:26;;;;;;;5.18;4.78;;;21.40;84.50;;;;;;5058244;28;20183;-75
2021/07/08 02:50:54;;;;;;;5.70;5.25;;;21.40;84.50;;;;;;5059875;28;20286;-76
2021/07/08 02:53:20;;;;;;;6.90;5.07;;;21.30;84.50;;;;;;5067308;28;20176;-76
2021/07/08 02:55:46;;;;;;;5.00;4.53;;;21.20;84.80;;;;;;5058940;28;20292;-76
2021/07/08 02:58:12;;;;;;;5.15;4.88;;;21.20;84.70;;;;;;5069001;28;20186;-75
2021/07/08 03:00:39;;;;;;;5.80;5.20;;;21.10;84.60;;;;;;5068645;28;20195;-75
2021/07/08 03:03:04;;;;;;;5.82;5.00;;;21.10;84.50;;;;;;5061703;28;20622;-75
2021/07/08 03:05:30;;;;;;;5.47;5.07;;;21.10;84.60;;;;;;5066288;28;20182;-75
2021/07/08 03:07:57;;;;;;;5.80;5.30;;;21.00;84.50;;;;;;5064669;28;20179;-75
2021/07/08 03:10:25;;;;;;;5.32;4.93;;;21.00;84.50;;;;;;5067031;28;20470;-75
2021/07/08 03:12:51;;;;;;;5.15;4.88;;;21.00;84.50;;;;;;5062371;28;20189;-76
2021/07/08 03:15:17;;;;;;;5.40;5.00;;;21.00;84.60;;;;;;5066411;28;20703;-75
2021/07/08 03:17:43;;;;;;;5.50;4.93;;;21.00;84.70;;;;;;5061398;28;20218;-75
2021/07/08 03:20:12;;;;;;;4.60;4.32;;;21.00;85.00;;;;;;5067439;28;20183;-75
2021/07/08 03:22:42;;;;;;;5.90;5.25;;;21.00;84.80;;;;;;5068487;28;20171;-75
2021/07/08 03:25:09;;;;;;;7.40;5.45;;;21.00;84.50;;;;;;5073295;28;20573;-75
2021/07/08 03:27:35;;;;;;;5.50;5.07;;;21.00;85.10;;;;;;5058661;28;20179;-74
2021/07/08 03:30:04;;;;;;;5.85;5.35;;;21.00;85.20;;;;;;5068121;28;20212;-75
2021/07/08 03:32:30;;;;;;;5.50;5.10;;;21.00;85.00;;;;;;5063552;28;20274;-74
2021/07/08 03:34:55;;;;;;;4.70;4.50;;;21.00;84.80;;;;;;5069979;28;20297;-75
2021/07/08 03:37:21;;;;;;;7.03;5.63;;;21.10;84.70;;;;;;5053509;28;20188;-75
2021/07/08 03:39:47;;;;;;;5.72;5.20;;;21.10;84.90;;;;;;5058749;28;20183;-74
2021/07/08 03:42:12;;;;;;;6.45;4.90;;;21.20;85.10;;;;;;5057841;28;20613;-76
2021/07/08 03:44:38;;;;;;;9.32;4.53;;;21.20;85.30;;;;;;5061601;28;20186;-75
2021/07/08 03:47:04;;;;;;;5.35;5.03;;;21.20;85.20;;;;;;5053603;28;20211;-75
2021/07/08 03:49:29;;;;;;;5.70;5.20;;;21.20;85.50;;;;;;5057927;28;20235;-75
2021/07/08 03:51:55;;;;;;;5.13;4.85;;;21.20;85.40;;;;;;5057854;28;20276;-75
2021/07/08 03:54:21;;;;;;;7.35;5.18;;;21.20;85.10;;;;;;5063529;28;20211;-75
2021/07/08 03:56:46;;;;;;;5.57;5.07;;;21.20;85.10;;;;;;5067352;28;20187;-75
2021/07/08 03:59:12;;;;;;;5.63;5.13;;;21.20;85.10;;;;;;5068043;28;20206;-75
2021/07/08 04:01:39;;;;;;;5.60;5.05;;;21.30;85.20;;;;;;5062043;28;20636;-75
2021/07/08 04:04:05;;;;;;;4.63;4.38;;;21.30;85.30;;;;;;5067863;28;21041;-75
2021/07/08 04:06:30;;;;;;;5.35;4.93;;;21.30;85.20;;;;;;5060841;28;20268;-75
2021/07/08 04:08:56;;;;;;;5.10;4.80;;;21.40;85.10;;;;;;5068264;28;20194;-75
2021/07/08 04:11:22;;;;;;;4.97;4.60;;;21.40;85.10;;;;;;5061224;28;20187;-75
2021/07/08 04:13:48;;;;;;;4.85;4.45;;;21.40;85.30;;;;;;5069148;28;20231;-75
2021/07/08 04:16:13;;;;;;;5.57;5.10;;;21.50;85.10;;;;;;5060766;28;20231;-75
2021/07/08 04:18:39;;;;;;;4.93;4.57;;;21.50;85.20;;;;;;5066430;28;20323;-75
2021/07/08 04:21:05;;;;;;;6.10;5.60;;;21.60;85.30;;;;;;5067486;28;20179;-75
2021/07/08 04:23:31;;;;;;;5.85;5.38;;;21.60;85.20;;;;;;5065969;28;20187;-75
2021/07/08 04:25:56;;;;;;;8.15;6.03;;;21.60;85.10;;;;;;5067133;28;20214;-75
2021/07/08 04:28:22;;;;;;;6.47;5.68;;;21.60;85.30;;;;;;5068744;28;20235;-75
2021/07/08 04:30:48;;;;;;;7.13;6.63;;;21.60;85.10;;;;;;5059356;28;20325;-75
2021/07/08 04:33:13;;;;;;;6.13;5.63;;;21.60;85.40;;;;;;5067641;28;20229;-75
2021/07/08 04:35:40;;;;;;;6.95;6.28;;;21.70;86.90;;;;;;5064800;28;20220;-75
2021/07/08 04:38:11;;;;;;;7.75;6.15;;;21.70;85.60;;;;;;5061801;28;20188;-75
2021/07/08 04:40:37;;;;;;;7.13;6.43;;;21.70;84.90;;;;;;5057951;28;20205;-75
2021/07/08 04:43:04;;;;;;;6.85;6.15;;;21.70;85.30;;;;;;5070682;28;20202;-75
2021/07/08 04:45:30;;;;;;;5.72;5.03;;;21.70;85.10;;;;;;5055339;28;20569;-75
2021/07/08 04:47:56;;;;;;;6.18;5.60;;;21.70;84.90;;;;;;5064221;28;20262;-75
2021/07/08 04:50:23;;;;;;;5.25;4.85;;;21.80;84.90;;;;;;5055690;28;20676;-75
2021/07/08 04:52:49;;;;;;;5.97;5.45;;;21.80;84.60;;;;;;5068028;28;20187;-75
2021/07/08 04:55:16;;;;;;;5.82;5.30;;;21.90;84.50;;;;;;5062028;28;20248;-75
2021/07/08 04:57:44;;;;;;;5.95;5.53;;;22.00;84.60;;;;;;5065524;28;20660;-75
2021/07/08 05:00:12;;;;;;;7.65;5.72;;;22.00;84.60;;;;;;5057413;28;20582;-75
2021/07/08 05:02:39;;;;;;;6.18;5.68;;;22.10;84.40;;;;;;5067598;28;20194;-75
2021/07/08 05:05:09;;;;;;;6.60;6.00;;;22.10;84.30;;;;;;5070993;28;20186;-74
2021/07/08 05:07:36;;;;;;;6.47;5.97;;;22.20;84.00;;;;;;5066283;28;20236;-75
2021/07/08 05:10:05;;;;;;;6.47;5.88;;;22.30;83.80;;;;;;5066336;28;20179;-76
2021/07/08 05:12:31;;;;;;;7.10;6.55;;;22.30;83.80;;;;;;5066288;28;20205;-75
2021/07/08 05:14:57;;;;;;;6.57;5.85;;;22.40;83.70;;;;;;5066556;28;20214;-76
2021/07/08 05:17:23;;;;;;;7.40;6.70;;;22.40;84.20;;;;;;5066337;28;20286;-77
2021/07/08 05:19:48;;;;;;;6.72;6.10;;;22.40;83.90;;;;;;5066155;28;20266;-77
2021/07/08 05:22:17;;;;;;;6.90;6.20;;;22.40;84.30;;;;;;5066108;28;20640;-75
2021/07/08 05:24:43;;;;;;;8.60;6.10;;;22.50;83.70;;;;;;5065951;28;20226;-75
2021/07/08 05:27:15;;;;;;;8.68;6.45;;;22.60;83.40;;;;;;5065960;28;20212;-74
2021/07/08 05:29:41;;;;;;;6.97;6.38;;;22.70;83.10;;;;;;5061990;28;20260;-75
2021/07/08 05:32:07;;;;;;;9.02;6.90;;;22.70;82.90;;;;;;5063529;28;20174;-75
2021/07/08 05:34:33;;;;;;;6.97;6.15;;;22.70;83.00;;;;;;5066395;28;20628;-74
2021/07/08 05:36:58;;;;;;;7.10;6.43;;;22.70;82.90;;;;;;5060321;28;20634;-74
2021/07/08 05:39:24;;;;;;;7.10;6.53;;;22.80;83.10;;;;;;5055041;28;20688;-76
2021/07/08 05:41:50;;;;;;;9.23;6.13;;;22.90;82.90;;;;;;5061694;28;20675;-76
2021/07/08 05:44:15;;;;;;;6.55;5.93;;;22.90;82.80;;;;;;5060297;28;20652;-76
2021/07/08 05:46:41;;;;;;;9.35;6.15;;;23.00;82.60;;;;;;5058102;28;20685;-76
2021/07/08 05:49:06;;;;;;;5.85;5.47;;;23.00;82.60;;;;;;5053993;28;20624;-76
2021/07/08 05:51:32;;;;;;;7.75;7.05;;;23.10;82.50;;;;;;5061306;28;20749;-76
2021/07/08 05:54:00;;;;;;;6.95;6.35;;;23.20;82.30;;;;;;5060930;28;20194;-75
2021/07/08 05:56:27;;;;;;;6.90;5.60;;;23.20;82.30;;;;;;5064398;28;20187;-75
2021/07/08 05:58:53;;;;;;;6.45;5.95;;;23.30;82.10;;;;;;5065687;28;20261;-74
2021/07/08 06:01:21;;;;;;;5.72;5.32;;;23.40;81.90;;;;;;5062613;28;20179;-76
2021/07/08 06:03:49;;;;;;;6.72;6.18;;;23.40;81.60;;;;;;5058393;28;20186;-74
2021/07/08 06:06:17;;;;;;;7.72;6.00;;;23.50;81.50;;;;;;5058138;28;20179;-74
2021/07/08 06:08:44;;;;;;;8.10;6.20;;;23.60;81.40;;;;;;5064263;28;20619;-75
2021/07/08 06:11:10;;;;;;;6.82;6.20;;;23.60;81.50;;;;;;5059875;28;20207;-74
2021/07/08 06:13:36;;;;;;;7.53;6.78;;;23.70;81.60;;;;;;5056116;28;20202;-77
2021/07/08 06:16:02;;;;;;;10.13;6.80;;;23.80;81.70;;;;;;5064643;28;20222;-76
2021/07/08 06:18:28;;;;;;;8.57;6.93;;;23.80;81.50;;;;;;5065173;28;21676;-76
2021/07/08 06:20:56;;;;;;;7.03;5.93;;;23.90;81.30;;;;;;5065682;28;20289;-75
2021/07/08 06:23:21;;;;;;;6.10;5.68;;;24.00;81.40;;;;;;5066647;28;20317;-75
2021/07/08 06:25:48;;;;;;;6.35;5.82;;;24.00;81.20;;;;;;5066158;28;20281;-76
2021/07/08 06:28:15;;;;;;;6.18;5.60;;;24.10;80.90;;;;;;5066211;28;20175;-75
2021/07/08 06:30:42;;;;;;;6.13;5.53;;;24.20;80.70;;;;;;5066638;28;20190;-75
2021/07/08 06:33:07;;;;;;;10.80;6.55;;;24.20;80.70;;;;;;5066553;28;20934;-76
2021/07/08 06:35:33;;;;;;;6.78;6.28;;;24.30;80.90;;;;;;5066589;28;20218;-76
2021/07/08 06:37:59;;;;;;;6.32;5.72;;;24.40;80.80;;;;;;5066584;28;20186;-75
2021/07/08 06:40:24;;;;;;;8.25;5.82;;;24.40;80.50;;;;;;5081976;28;20229;-75
2021/07/08 06:42:50;;;;;;;6.72;5.75;;;24.50;80.80;;;;;;5066720;28;20273;-75
2021/07/08 06:45:17;;;;;;;5.97;5.65;;;24.60;80.60;;;;;;5066512;28;20677;-75
2021/07/08 06:47:45;;;;;;;8.45;6.05;;;24.70;80.70;;;;;;5067041;28;20179;-75
2021/07/08 06:50:13;;;;;;;6.35;5.78;;;24.80;80.80;;;;;;5067075;28;20721;-74
2021/07/08 06:52:39;;;;;;;6.18;5.68;;;24.80;80.50;;;;;;5065079;28;20187;-75
2021/07/08 06:55:06;;;;;;;7.65;5.68;;;24.90;80.30;;;;;;5064169;28;20719;-75
2021/07/08 06:57:32;;;;;;;5.95;5.35;;;25.00;79.70;;;;;;5070183;28;20213;-75
2021/07/08 06:59:57;;;;;;;6.90;6.40;;;25.10;79.70;;;;;;5085529;28;20214;-75
2021/07/08 07:02:23;;;;;;;5.78;5.38;;;25.20;79.70;;;;;;5061277;28;20183;-76
2021/07/08 07:04:49;;;;;;;6.28;5.80;;;25.20;79.60;;;;;;5070258;28;20187;-76
2021/07/08 07:07:15;;;;;;;5.85;5.50;;;25.30;79.40;;;;;;5070048;28;20270;-76
2021/07/08 07:09:42;;;;;;;9.00;6.20;;;25.40;79.30;;;;;;5070108;28;20265;-76
2021/07/08 07:12:08;;;;;;;9.98;6.55;;;25.50;78.80;;;;;;5070093;28;20247;-76
2021/07/08 07:14:34;;;;;;;6.47;5.88;;;25.50;78.90;;;;;;5069700;28;20285;-76
2021/07/08 07:17:00;;;;;;;6.85;5.85;;;25.60;78.90;;;;;;5069208;28;20656;-76
2021/07/08 07:19:26;;;;;;;6.40;5.75;;;25.70;79.10;;;;;;5066579;28;20178;-75
2021/07/08 07:21:52;;;;;;;6.93;6.32;;;25.80;79.10;;;;;;5069154;28;20217;-75
2021/07/08 07:24:18;;;;;;;6.80;6.20;;;25.90;78.70;;;;;;5069135;28;20308;-75
2021/07/08 07:26:43;;;;;;;7.90;5.68;;;26.00;78.30;;;;;;5069561;28;20183;-75
2021/07/08 07:29:09;;;;;;;5.22;4.90;;;26.00;78.20;;;;;;5069474;28;20261;-76
2021/07/08 07:31:35;;;;;;;6.95;5.00;;;26.10;78.10;;;;;;5069281;28;20247;-75
2021/07/08 07:34:00;;;;;;;6.00;5.43;;;26.20;78.10;;;;;;5069451;28;20182;-75
2021/07/08 07:36:26;;;;;;;6.95;5.30;;;26.30;77.80;;;;;;5069402;28;20613;-75
2021/07/08 07:38:52;;;;;;;9.10;5.85;;;26.40;77.90;;;;;;5069450;28;20191;-75
2021/07/08 07:41:18;;;;;;;5.72;5.28;;;26.50;77.70;;;;;;5069519;28;20213;-75
2021/07/08 07:43:45;;;;;;;5.50;5.10;;;26.50;77.50;;;;;;5069106;28;20179;-75
2021/07/08 07:46:11;;;;;;;5.65;5.18;;;26.60;76.70;;;;;;5068421;28;20574;-76
2021/07/08 07:48:37;;;;;;;6.00;4.68;;;26.70;76.40;;;;;;5067925;28;20656;-75
2021/07/08 07:51:02;;;;;;;4.30;4.00;;;26.70;76.10;;;;;;5067620;28;20439;-75
2021/07/08 07:53:28;;;;;;;5.68;4.38;;;26.80;75.90;;;;;;5066940;28;20183;-75
2021/07/08 07:58:38;;;;;;;4.78;4.38;;;27.00;75.10;;;;;;5058050;28;20222;-75
2021/07/08 08:01:04;;;;;;;4.68;4.47;;;27.10;74.70;;;;;;5065351;28;20203;-75
2021/07/08 08:03:29;;;;;;;5.13;4.78;;;27.10;75.10;;;;;;5067896;28;20183;-75
2021/07/08 08:08:56;;;;;;;4.32;4.13;;;27.30;73.30;;;;;;5025476;28;20181;-75
2021/07/08 08:11:22;;;;;;;5.10;4.53;;;27.30;73.50;;;;;;5024868;28;20275;-75
2021/07/08 08:13:48;;;;;;;4.70;4.30;;;27.40;73.70;;;;;;5024977;28;20195;-75
2021/07/08 08:16:13;;;;;;;4.45;4.32;;;27.40;73.00;;;;;;5024467;28;20278;-75
2021/07/08 08:18:39;;;;;;;12.55;5.28;;;27.50;73.30;;;;;;5028850;28;20586;-75
2021/07/08 08:21:05;;;;;;;5.03;4.38;;;27.60;73.00;;;;;;5018558;28;20698;-75
2021/07/08 08:23:30;;;;;;;4.60;4.30;;;27.70;73.00;;;;;;5024398;28;20192;-75
2021/07/08 08:25:57;;;;;;;5.85;4.97;;;27.80;72.50;;;;;;5024126;28;20435;-75
2021/07/08 08:28:23;;;;;;;4.57;4.22;;;27.90;72.30;;;;;;5024545;28;20190;-75
2021/07/08 08:30:50;;;;;;;4.38;3.92;;;27.90;72.10;;;;;;5017861;28;20283;-75
2021/07/08 08:33:15;;;;;;;4.93;4.65;;;28.00;71.60;;;;;;5027155;28;20679;-75
2021/07/08 08:35:41;;;;;;;4.95;4.70;;;28.10;72.20;;;;;;5022620;28;20236;-75
2021/07/08 08:38:07;;;;;;;5.40;5.10;;;28.20;72.00;;;;;;5019382;28;20187;-75
2021/07/08 08:40:33;;;;;;;4.55;4.35;;;28.30;72.10;;;;;;5013402;28;20193;-75
2021/07/08 08:42:58;;;;;;;4.88;4.50;;;28.30;71.50;;;;;;5048214;28;20210;-75
2021/07/08 08:45:24;;;;;;;4.95;4.63;;;28.40;71.50;;;;;;5056039;28;20191;-75
2021/07/08 08:47:54;;;;;;;5.35;4.95;;;28.50;71.20;;;;;;5077020;28;20274;-75
2021/07/08 08:50:20;;;;;;;5.15;4.78;;;28.60;71.40;;;;;;5057745;28;20228;-75
2021/07/08 08:52:48;;;;;;;5.28;4.85;;;28.70;71.30;;;;;;5066629;28;20237;-75
2021/07/08 08:55:14;;;;;;;5.32;5.07;;;28.80;71.20;;;;;;5061793;28;20263;-75
2021/07/08 08:57:40;;;;;;;5.90;5.50;;;29.00;70.30;;;;;;5065028;28;20190;-75
2021/07/08 09:00:25;;;;;;;5.95;5.45;;;29.10;70.50;;;;;;5066653;28;20232;-76
2021/07/08 09:03:23;;;;;;;6.10;5.65;;;29.20;70.80;;;;;;5058926;28;20560;-75
2021/07/08 09:06:08;;;;;;;6.22;5.22;;;29.30;70.10;;;;;;5022451;28;20278;-75
2021/07/08 09:08:35;;;;;;;5.93;5.47;;;29.40;70.40;;;;;;5014920;28;20184;-76
2021/07/08 09:11:01;;;;;;;6.07;5.57;;;29.60;69.50;;;;;;5020212;28;20232;-76
2021/07/08 09:13:28;;;;;;;6.45;5.80;;;29.70;69.10;;;;;;5016019;28;20193;-76
2021/07/08 09:15:53;;;;;;;6.47;5.90;;;29.90;68.90;;;;;;5020617;28;20260;-76
2021/07/08 09:18:25;;;;;;;6.45;5.97;;;30.00;68.90;;;;;;5018289;28;20223;-76
2021/07/08 09:20:50;;;;;;;6.63;5.97;;;30.10;68.90;;;;;;5018344;28;20231;-75
2021/07/08 09:23:18;;;;;;;6.43;6.03;;;30.20;67.90;;;;;;5017641;28;20594;-76
2021/07/08 09:25:46;;;;;;;6.45;6.05;;;30.30;67.80;;;;;;5023359;28;20193;-76
2021/07/08 09:28:21;;;;;;;6.57;6.07;;;30.40;66.60;;;;;;5019036;28;20611;-76
2021/07/08 09:31:03;;;;;;;6.57;6.18;;;30.30;66.80;;;;;;4997567;28;20223;-76
2021/07/08 09:33:40;;;;;;;6.72;6.20;;;30.40;67.60;;;;;;5025956;28;20187;-76
2021/07/08 09:36:07;;;;;;;6.40;5.90;;;30.50;68.00;;;;;;5006764;28;20544;-76
2021/07/08 09:38:33;;;;;;;6.10;5.75;;;30.70;67.80;;;;;;5022335;28;20193;-76
2021/07/08 09:41:09;;;;;;;6.80;6.43;;;30.80;67.70;;;;;;5009627;28;20615;-76
2021/07/08 09:43:37;;;;;;;6.43;5.68;;;31.00;67.10;;;;;;5060747;28;20183;-74
2021/07/08 09:46:04;;;;;;;7.25;6.68;;;31.10;65.40;;;;;;5054686;28;20183;-74
2021/07/08 09:48:29;;;;;;;7.22;6.53;;;31.30;66.50;;;;;;5052342;28;20628;-74
2021/07/08 09:50:56;;;;;;;6.82;6.43;;;31.40;66.20;;;;;;5055100;28;20171;-74
2021/07/08 09:53:24;;;;;;;7.15;5.90;;;31.50;65.80;;;;;;5063650;28;20179;-76
2021/07/08 09:56:02;;;;;;;7.20;5.97;;;31.60;65.70;;;;;;5061174;28;20215;-75
2021/07/08 09:58:30;;;;;;;6.22;5.72;;;31.80;66.00;;;;;;5066069;28;20186;-74
2021/07/08 10:00:56;;;;;;;7.05;6.30;;;31.90;65.60;;;;;;5065696;28;20183;-74
2021/07/08 10:03:22;;;;;;;6.35;6.05;;;32.10;65.00;;;;;;5070961;28;20676;-75
2021/07/08 10:05:47;;;;;;;6.55;6.07;;;32.30;64.90;;;;;;5065356;28;20182;-75
2021/07/08 10:08:13;;;;;;;6.80;6.25;;;32.50;64.60;;;;;;5057220;28;20194;-75
2021/07/08 10:10:40;;;;;;;6.97;6.30;;;32.60;64.00;;;;;;5065737;28;20564;-75
2021/07/08 10:13:08;;;;;;;6.97;6.22;;;32.60;63.20;;;;;;5057571;28;20182;-75
2021/07/08 10:15:38;;;;;;;6.45;6.05;;;32.70;63.40;;;;;;5065568;28;20293;-75
2021/07/08 10:18:04;;;;;;;6.70;5.82;;;32.80;62.40;;;;;;5065645;28;20190;-75
2021/07/08 10:20:31;;;;;;;6.38;5.97;;;33.00;62.90;;;;;;5065756;28;20622;-75
2021/07/08 10:22:58;;;;;;;6.22;5.93;;;33.20;61.30;;;;;;5065773;28;20670;-75
2021/07/08 10:25:24;;;;;;;5.97;5.35;;;33.30;60.80;;;;;;5068499;28;20240;-75
2021/07/08 10:27:52;;;;;;;5.53;5.22;;;33.20;60.80;;;;;;5055344;28;20594;-75
2021/07/08 10:30:22;;;;;;;6.22;5.93;;;33.20;61.70;;;;;;5064184;28;20200;-75
2021/07/08 10:32:58;;;;;;;7.07;5.78;;;33.30;61.80;;;;;;5069490;28;20273;-75
2021/07/08 10:35:46;;;;;;;10.25;5.43;;;33.40;61.80;;;;;;5068323;28;20214;-75
2021/07/08 10:38:31;;;;;;;5.82;5.50;;;33.70;60.30;;;;;;5061043;28;20200;-75
2021/07/08 10:40:59;;;;;;;6.32;5.93;;;34.00;60.10;;;;;;5054921;28;20756;-74
2021/07/08 10:43:39;;;;;;;6.03;5.72;;;34.20;59.90;;;;;;5066939;28;20190;-75
2021/07/08 10:46:13;;;;;;;5.35;5.13;;;34.60;58.70;;;;;;5057357;28;20513;-75
2021/07/08 10:48:50;;;;;;;6.55;5.78;;;35.10;58.60;;;;;;5058931;28;20185;-75
2021/07/08 10:51:26;;;;;;;5.93;5.60;;;35.40;57.60;;;;;;5068873;28;20182;-75
2021/07/08 10:53:52;;;;;;;6.63;6.22;;;35.40;57.60;;;;;;5064507;28;20274;-75
2021/07/08 10:56:31;;;;;;;6.60;6.10;;;35.50;57.60;;;;;;5066593;28;20297;-75
2021/07/08 10:58:57;;;;;;;5.72;5.32;;;35.90;57.00;;;;;;5068769;28;20721;-76
2021/07/08 11:01:22;;;;;;;5.70;5.35;;;36.60;55.80;;;;;;5065305;28;20207;-75
2021/07/08 11:03:49;;;;;;;6.50;5.47;;;37.30;54.60;;;;;;5060416;28;20570;-75
2021/07/08 11:06:32;;;;;;;5.70;5.18;;;38.00;55.10;;;;;;5063700;28;20187;-75
2021/07/08 11:09:16;;;;;;;5.35;5.05;;;38.70;53.30;;;;;;5066153;28;20389;-75
2021/07/08 11:11:45;;;;;;;7.05;5.18;;;39.30;52.00;;;;;;5065203;28;20255;-75
2021/07/08 11:14:11;;;;;;;5.93;5.40;;;39.80;51.40;;;;;;5068505;28;20175;-75
2021/07/08 11:16:58;;;;;;;4.75;4.55;;;40.40;52.50;;;;;;5068469;28;20174;-76
2021/07/08 11:19:24;;;;;;;6.07;5.72;;;40.90;50.70;;;;;;5068293;28;20174;-76
2021/07/08 11:21:52;;;;;;;10.48;5.55;;;41.30;50.50;;;;;;5068423;28;20575;-76
2021/07/08 11:24:24;;;;;;;5.72;5.22;;;41.70;48.80;;;;;;5068248;28;20190;-76
2021/07/08 11:27:13;;;;;;;5.15;4.95;;;42.10;49.00;;;;;;5067733;28;20212;-76
2021/07/08 11:29:51;;;;;;;5.25;4.85;;;42.50;48.90;;;;;;5017450;28;20212;-76
2021/07/08 11:32:27;;;;;;;5.35;5.13;;;42.90;48.20;;;;;;5019157;28;20718;-76
2021/07/08 11:35:14;;;;;;;5.15;4.85;;;43.10;49.50;;;;;;5027436;28;20761;-76
2021/07/08 11:37:41;;;;;;;4.68;4.47;;;43.20;47.50;;;;;;5011154;28;20188;-76
2021/07/08 11:40:14;;;;;;;4.43;4.22;;;43.40;48.30;;;;;;5015482;28;20188;-76
2021/07/08 11:42:41;;;;;;;4.30;4.20;;;43.40;46.30;;;;;;5019726;28;20459;-76
2021/07/08 11:45:13;;;;;;;3.97;3.88;;;43.50;46.40;;;;;;5014322;28;20203;-76
2021/07/08 11:47:40;;;;;;;5.05;4.88;;;43.80;47.20;;;;;;5014151;28;20334;-76
2021/07/08 11:50:15;;;;;;;5.13;4.80;;;44.10;48.30;;;;;;5011777;28;20180;-76
2021/07/08 11:52:40;;;;;;;5.53;5.00;;;44.10;46.00;;;;;;5031771;28;20551;-76
2021/07/08 11:55:07;;;;;;;5.07;4.85;;;43.90;48.00;;;;;;5025242;28;20227;-76
2021/07/08 11:57:58;;;;;;;5.72;5.07;;;43.90;47.80;;;;;;5022868;28;20187;-76
2021/07/08 12:00:30;;;;;;;4.63;4.35;;;44.00;45.00;;;;;;5025112;28;20219;-76
2021/07/08 12:02:56;;;;;;;4.63;4.43;;;43.80;46.60;;;;;;5027947;28;20680;-74
2021/07/08 12:05:22;;;;;;;5.00;4.70;;;43.90;44.90;;;;;;5016757;28;20193;-76
2021/07/08 12:08:09;;;;;;;4.63;4.53;;;44.20;45.90;;;;;;5061295;28;20434;-76
2021/07/08 12:10:35;;;;;;;5.32;5.13;;;44.50;46.30;;;;;;5065121;28;20866;-75
2021/07/08 12:13:01;;;;;;;5.35;5.15;;;44.70;45.20;;;;;;5058081;28;20183;-76
2021/07/08 12:15:28;;;;;;;4.82;4.35;;;44.90;45.30;;;;;;5081642;28;20267;-76
2021/07/08 12:17:57;;;;;;;4.75;4.60;;;45.10;44.30;;;;;;5058260;28;20179;-76
2021/07/08 12:20:23;;;;;;;4.45;4.28;;;45.10;44.10;;;;;;5067492;28;20220;-76
2021/07/08 12:22:53;;;;;;;4.95;4.57;;;45.10;46.20;;;;;;5067546;28;20214;-76
2021/07/08 12:25:22;;;;;;;4.72;4.53;;;45.20;43.80;;;;;;5071205;28;20182;-76
2021/07/08 12:27:49;;;;;;;5.63;5.07;;;45.30;44.90;;;;;;5057986;28;20241;-76
2021/07/08 12:30:29;;;;;;;5.07;4.88;;;45.50;44.90;;;;;;5062082;28;20618;-76
2021/07/08 12:33:15;;;;;;;5.18;4.72;;;45.50;45.20;;;;;;5067068;28;20268;-76
2021/07/08 12:35:48;;;;;;;4.88;4.68;;;45.20;43.50;;;;;;5064025;28;20218;-76
2021/07/08 12:38:18;;;;;;;4.55;4.28;;;45.40;43.30;;;;;;5059861;28;20182;-76
2021/07/08 12:40:47;;;;;;;4.93;4.68;;;45.70;43.70;;;;;;5053573;28;20556;-76
2021/07/08 12:43:18;;;;;;;5.20;5.00;;;45.90;44.90;;;;;;5066801;28;20314;-76
2021/07/08 12:45:44;;;;;;;4.60;4.50;;;46.10;43.40;;;;;;5069119;28;20183;-76
2021/07/08 12:48:13;;;;;;;4.35;4.15;;;46.20;44.00;;;;;;5060047;28;20775;-76
2021/07/08 12:50:44;;;;;;;4.63;4.43;;;46.40;44.80;;;;;;5054031;28;20175;-76
2021/07/08 12:53:13;;;;;;;5.10;4.90;;;46.70;44.10;;;;;;5066730;28;20185;-74
2021/07/08 12:55:43;;;;;;;5.50;5.13;;;46.70;44.80;;;;;;5061508;28;20606;-75